createdAt,value
2022-08-27T00:02:08.229Z,77.20
2022-08-27T00:04:36.573Z,77.30
2022-08-27T00:07:05.651Z,77.40
2022-08-27T00:09:33.058Z,77.20
2022-08-27T00:12:00.544Z,77.10
2022-08-27T00:14:28.953Z,77.30
2022-08-27T00:16:57.212Z,77.50
2022-08-27T00:19:25.027Z,77.40
2022-08-27T00:21:52.340Z,77.50
2022-08-27T00:24:19.621Z,77.60
2022-08-27T00:26:47.119Z,77.90
2022-08-27T00:29:14.581Z,77.80
2022-08-27T00:31:42.085Z,78.00
2022-08-27T00:34:13.012Z,78.00
2022-08-27T00:36:41.433Z,78.00
2022-08-27T00:39:08.863Z,78.00
2022-08-27T00:41:36.780Z,78.20
2022-08-27T00:44:05.795Z,78.20
2022-08-27T00:46:55.294Z,78.30
2022-08-27T00:49:27.751Z,78.40
2022-08-27T00:52:04.252Z,78.20
2022-08-27T00:54:32.387Z,78.40
2022-08-27T00:57:01.141Z,78.30
2022-08-27T00:59:30.986Z,78.40
2022-08-27T01:02:18.036Z,78.30
2022-08-27T01:05:02.740Z,78.20
2022-08-27T01:07:33.290Z,78.40
2022-08-27T01:10:04.236Z,78.90
2022-08-27T01:12:33.484Z,78.00
2022-08-27T01:15:03.208Z,78.10
2022-08-27T01:17:31.888Z,78.00
2022-08-27T01:20:03.969Z,78.00
2022-08-27T01:22:59.201Z,78.30
2022-08-27T01:25:28.147Z,78.40
2022-08-27T01:27:59.458Z,78.50
2022-08-27T01:30:27.448Z,78.60
2022-08-27T01:32:55.712Z,78.50
2022-08-27T01:35:24.433Z,78.80
2022-08-27T01:37:54.335Z,78.80
2022-08-27T01:40:25.307Z,78.70
2022-08-27T01:42:55.586Z,78.60
2022-08-27T01:45:30.122Z,78.70
2022-08-27T01:47:58.730Z,78.90
2022-08-27T01:50:32.540Z,78.80
2022-08-27T01:53:06.282Z,78.80
2022-08-27T01:55:34.142Z,78.60
2022-08-27T01:58:01.726Z,78.40
2022-08-27T02:00:32.787Z,78.40
2022-08-27T02:03:00.688Z,79.30
2022-08-27T02:05:30.303Z,78.60
2022-08-27T02:07:59.211Z,78.70
2022-08-27T02:10:35.095Z,78.60
2022-08-27T02:13:02.993Z,78.80
2022-08-27T02:15:30.494Z,78.80
2022-08-27T02:17:57.892Z,78.70
2022-08-27T02:20:29.286Z,78.70
2022-08-27T02:22:58.203Z,78.80
2022-08-27T02:25:27.627Z,78.80
2022-08-27T02:28:00.166Z,79.10
2022-08-27T02:30:31.902Z,79.20
2022-08-27T02:33:01.265Z,79.40
2022-08-27T02:35:30.698Z,79.20
2022-08-27T02:37:58.516Z,79.10
2022-08-27T02:40:26.207Z,79.10
2022-08-27T02:42:53.987Z,79.10
2022-08-27T02:45:21.482Z,79.10
2022-08-27T02:47:48.798Z,79.10
2022-08-27T02:50:16.730Z,79.10
2022-08-27T02:52:45.311Z,79.10
2022-08-27T02:55:16.087Z,79.10
2022-08-27T02:57:45.414Z,79.00
2022-08-27T03:00:15.918Z,79.00
2022-08-27T03:02:43.359Z,79.00
2022-08-27T03:05:13.195Z,79.00
2022-08-27T03:07:41.147Z,79.10
2022-08-27T03:10:10.332Z,79.10
2022-08-27T03:12:38.989Z,79.30
2022-08-27T03:15:09.937Z,79.40
2022-08-27T03:17:56.573Z,79.50
2022-08-27T03:20:25.705Z,79.40
2022-08-27T03:22:53.764Z,79.50
2022-08-27T03:25:21.687Z,79.50
2022-08-27T03:27:49.142Z,79.40
2022-08-27T03:30:22.412Z,79.50
2022-08-27T03:32:50.314Z,79.70
2022-08-27T03:35:19.607Z,79.70
2022-08-27T03:37:47.302Z,80.40
2022-08-27T03:40:16.449Z,79.70
2022-08-27T03:42:44.049Z,79.70
2022-08-27T03:45:12.308Z,79.90
2022-08-27T03:47:40.441Z,80.10
2022-08-27T03:50:09.338Z,80.00
2022-08-27T03:52:37.558Z,79.90
2022-08-27T03:55:07.585Z,79.70
2022-08-27T03:57:35.560Z,79.50
2022-08-27T04:00:04.663Z,79.50
2022-08-27T04:02:41.961Z,79.60
2022-08-27T04:05:11.811Z,79.80
2022-08-27T04:07:40.878Z,79.90
2022-08-27T04:10:10.231Z,79.90
2022-08-27T04:12:38.998Z,79.90
2022-08-27T04:15:08.463Z,79.90
2022-08-27T04:17:36.020Z,79.90
2022-08-27T04:20:31.745Z,79.90
2022-08-27T04:22:54.474Z,80.00
2022-08-27T04:25:21.908Z,80.00
2022-08-27T04:27:49.410Z,80.00
2022-08-27T04:30:16.875Z,80.20
2022-08-27T04:32:44.321Z,80.20
2022-08-27T04:35:12.129Z,80.20
2022-08-27T04:37:40.408Z,80.30
2022-08-27T04:40:10.304Z,80.40
2022-08-27T04:42:38.016Z,80.50
2022-08-27T04:45:06.467Z,80.40
2022-08-27T04:47:34.774Z,80.50
2022-08-27T04:50:03.220Z,80.50
2022-08-27T04:52:33.313Z,80.70
2022-08-27T04:55:08.477Z,80.70
2022-08-27T04:57:37.864Z,80.70
2022-08-27T05:00:07.746Z,80.70
2022-08-27T05:02:35.283Z,80.80
2022-08-27T05:05:03.090Z,80.70
2022-08-27T05:07:30.675Z,80.80
2022-08-27T05:09:58.315Z,80.80
2022-08-27T05:12:25.975Z,80.80
2022-08-27T05:14:54.656Z,80.80
2022-08-27T05:17:22.263Z,80.60
2022-08-27T05:19:49.889Z,80.50
2022-08-27T05:22:17.279Z,80.40
2022-08-27T05:24:49.553Z,80.40
2022-08-27T05:27:18.655Z,80.40
2022-08-27T05:29:45.949Z,80.60
2022-08-27T05:32:13.679Z,80.60
2022-08-27T05:34:41.024Z,80.50
2022-08-27T05:37:08.437Z,80.40
2022-08-27T05:39:36.056Z,80.40
2022-08-27T05:42:03.635Z,80.30
2022-08-27T05:44:41.270Z,80.40
2022-08-27T05:47:09.280Z,80.30
2022-08-27T05:49:37.548Z,80.30
2022-08-27T05:52:09.348Z,80.30
2022-08-27T05:54:37.169Z,80.40
2022-08-27T05:57:04.619Z,80.20
2022-08-27T05:59:50.884Z,80.20
2022-08-27T06:02:20.408Z,80.10
2022-08-27T06:04:48.170Z,80.00
2022-08-27T06:07:16.042Z,80.00
2022-08-27T06:09:43.380Z,80.00
2022-08-27T06:12:12.001Z,79.80
2022-08-27T06:14:39.353Z,79.80
2022-08-27T06:17:06.650Z,79.80
2022-08-27T06:19:36.341Z,79.90
2022-08-27T06:22:10.443Z,80.00
2022-08-27T06:24:42.444Z,80.10
2022-08-27T06:27:13.399Z,80.20
2022-08-27T06:29:41.547Z,80.20
2022-08-27T06:32:09.843Z,80.20
2022-08-27T06:34:38.795Z,80.40
2022-08-27T06:37:07.414Z,80.70
2022-08-27T06:39:36.181Z,80.70
2022-08-27T06:42:06.365Z,80.80
2022-08-27T06:44:34.294Z,80.70
2022-08-27T06:47:03.717Z,80.60
2022-08-27T06:49:31.833Z,80.80
2022-08-27T06:51:59.640Z,80.90
2022-08-27T06:54:27.138Z,80.80
2022-08-27T06:56:57.820Z,80.70
2022-08-27T06:59:25.428Z,80.30
2022-08-27T07:01:53.087Z,80.40
2022-08-27T07:04:27.843Z,80.60
2022-08-27T07:07:02.285Z,80.80
2022-08-27T07:09:32.394Z,80.80
2022-08-27T07:12:00.890Z,80.70
2022-08-27T07:14:31.868Z,80.30
2022-08-27T07:17:04.197Z,80.40
2022-08-27T07:19:32.209Z,80.30
2022-08-27T07:22:00.030Z,79.90
2022-08-27T07:24:28.098Z,79.90
2022-08-27T07:26:55.634Z,80.00
2022-08-27T07:29:23.129Z,80.00
2022-08-27T07:31:50.568Z,79.50
2022-08-27T07:34:18.056Z,79.80
2022-08-27T07:36:45.379Z,80.00
2022-08-27T07:39:15.716Z,80.10
2022-08-27T07:42:09.344Z,80.20
2022-08-27T07:44:37.018Z,79.60
2022-08-27T07:47:04.363Z,79.40
2022-08-27T07:49:34.890Z,79.50
2022-08-27T07:52:03.664Z,79.40
2022-08-27T07:54:31.558Z,79.50
2022-08-27T07:56:59.452Z,80.00
2022-08-27T07:59:27.973Z,80.00
2022-08-27T08:01:56.872Z,80.00
2022-08-27T08:04:26.528Z,79.90
2022-08-27T08:06:55.639Z,80.10
2022-08-27T08:09:25.012Z,79.80
2022-08-27T08:11:53.129Z,79.50
2022-08-27T08:14:21.634Z,79.50
2022-08-27T08:16:49.347Z,79.10
2022-08-27T08:19:17.328Z,78.50
2022-08-27T08:21:44.800Z,78.30
2022-08-27T08:24:12.429Z,78.00
2022-08-27T08:26:41.820Z,77.90
2022-08-27T08:29:09.207Z,77.80
2022-08-27T08:31:42.596Z,78.00
2022-08-27T08:34:10.445Z,77.90
2022-08-27T08:36:42.935Z,77.80
2022-08-27T08:39:14.299Z,77.80
2022-08-27T08:41:52.369Z,78.00
2022-08-27T08:44:35.457Z,78.10
2022-08-27T08:47:19.873Z,78.90
2022-08-27T08:50:04.901Z,79.00
2022-08-27T08:52:35.515Z,79.10
2022-08-27T08:55:40.274Z,78.80
2022-08-27T08:58:38.815Z,77.40
2022-08-27T09:01:09.990Z,76.10
2022-08-27T09:03:42.051Z,76.00
2022-08-27T09:06:22.371Z,75.00
2022-08-27T09:08:50.015Z,74.50
2022-08-27T09:11:20.631Z,74.20
2022-08-27T09:13:53.260Z,73.80
2022-08-27T09:16:21.416Z,73.80
2022-08-27T09:18:52.454Z,74.70
2022-08-27T09:21:52.445Z,75.00
2022-08-27T09:24:44.375Z,74.20
2022-08-27T09:27:14.835Z,73.00
2022-08-27T09:29:56.114Z,72.30
2022-08-27T09:32:26.936Z,70.90
2022-08-27T09:35:03.427Z,70.40
2022-08-27T09:37:38.683Z,70.20
2022-08-27T09:40:22.892Z,69.80
2022-08-27T09:43:05.860Z,69.70
2022-08-27T09:45:34.797Z,69.10
2022-08-27T09:48:13.378Z,69.10
2022-08-27T09:50:50.826Z,67.60
2022-08-27T09:53:21.795Z,66.00
2022-08-27T09:55:54.647Z,66.10
2022-08-27T09:58:30.575Z,65.80
2022-08-27T10:01:07.297Z,65.20
2022-08-27T10:03:34.880Z,65.40
2022-08-27T10:06:02.350Z,66.20
2022-08-27T10:08:42.155Z,66.30
2022-08-27T10:11:17.157Z,66.50
2022-08-27T10:14:02.002Z,66.90
2022-08-27T10:16:29.498Z,66.40
2022-08-27T10:19:15.952Z,67.30
2022-08-27T10:21:54.097Z,66.90
2022-08-27T10:25:00.751Z,66.60
2022-08-27T10:27:38.886Z,65.90
2022-08-27T10:30:11.787Z,65.90
2022-08-27T10:33:03.864Z,65.60
2022-08-27T10:35:31.683Z,65.40
2022-08-27T10:38:06.160Z,64.50
2022-08-27T10:40:54.285Z,64.20
2022-08-27T10:43:42.538Z,63.10
2022-08-27T10:46:38.248Z,62.20
2022-08-27T10:49:28.135Z,61.00
2022-08-27T10:52:22.773Z,61.70
2022-08-27T10:55:12.863Z,61.20
2022-08-27T10:58:06.334Z,62.80
2022-08-27T11:00:55.316Z,63.30
2022-08-27T11:03:33.983Z,62.10
2022-08-27T11:06:21.654Z,61.90
2022-08-27T11:09:07.470Z,61.90
2022-08-27T11:14:37.445Z,62.70
2022-08-27T11:17:32.082Z,61.20
2022-08-27T11:20:05.070Z,61.60
2022-08-27T11:22:52.317Z,61.50
2022-08-27T11:25:35.631Z,61.10
2022-08-27T11:28:05.350Z,61.30
2022-08-27T11:30:51.404Z,60.20
2022-08-27T11:33:29.056Z,60.80
2022-08-27T11:36:13.597Z,60.40
2022-08-27T11:39:04.342Z,60.40
2022-08-27T11:41:52.537Z,60.80
2022-08-27T11:44:23.958Z,61.00
2022-08-27T11:47:14.808Z,59.90
2022-08-27T11:49:48.827Z,60.50
2022-08-27T11:52:29.836Z,60.50
2022-08-27T11:55:22.639Z,60.40
2022-08-27T11:58:04.269Z,61.10
2022-08-27T12:00:35.478Z,61.20
2022-08-27T12:03:11.310Z,61.10
2022-08-27T12:06:05.122Z,61.30
2022-08-27T12:08:34.889Z,61.10
2022-08-27T12:11:17.210Z,61.40
2022-08-27T12:14:00.751Z,61.60
2022-08-27T12:16:58.196Z,61.40
2022-08-27T12:19:56.885Z,62.00
2022-08-27T12:23:25.432Z,61.70
2022-08-27T12:26:35.503Z,62.00
2022-08-27T12:29:44.079Z,61.70
2022-08-27T12:32:26.335Z,61.40
2022-08-27T12:35:21.379Z,61.50
2022-08-27T12:38:11.936Z,61.40
2022-08-27T12:41:00.116Z,61.60
2022-08-27T12:43:30.063Z,61.10
2022-08-27T12:46:07.260Z,60.70
2022-08-27T12:48:42.306Z,61.00
2022-08-27T12:51:14.329Z,60.10
2022-08-27T12:53:56.983Z,60.10
2022-08-27T12:56:24.563Z,60.70
2022-08-27T12:59:31.721Z,61.20
2022-08-27T13:02:04.866Z,61.30
2022-08-27T13:04:34.179Z,60.80
2022-08-27T13:07:01.996Z,61.50
2022-08-27T13:09:35.940Z,61.20
2022-08-27T13:12:07.242Z,61.30
2022-08-27T13:14:39.060Z,62.30
2022-08-27T13:17:14.615Z,62.50
2022-08-27T13:19:52.969Z,63.30
2022-08-27T13:22:43.624Z,62.50
2022-08-27T13:25:33.225Z,62.20
2022-08-27T13:28:22.431Z,62.50
2022-08-27T13:30:50.863Z,62.50
2022-08-27T13:33:24.784Z,62.80
2022-08-27T13:35:52.588Z,62.20
2022-08-27T13:38:22.401Z,62.70
2022-08-27T13:41:10.238Z,62.00
2022-08-27T13:43:42.330Z,60.80
2022-08-27T13:46:30.830Z,61.50
2022-08-27T13:48:59.756Z,61.70
2022-08-27T13:51:30.990Z,61.20
2022-08-27T13:54:13.894Z,60.30
2022-08-27T13:57:03.545Z,60.20
2022-08-27T13:59:31.961Z,60.30
2022-08-27T14:02:15.840Z,60.20
2022-08-27T14:04:47.684Z,59.60
2022-08-27T14:07:29.348Z,59.60
2022-08-27T14:10:02.602Z,59.40
2022-08-27T14:12:41.478Z,59.60
2022-08-27T14:15:35.826Z,59.40
2022-08-27T14:18:07.499Z,59.40
2022-08-27T14:20:37.031Z,59.00
2022-08-27T14:23:05.394Z,58.50
2022-08-27T14:25:34.599Z,58.60
2022-08-27T14:28:02.671Z,58.20
2022-08-27T14:30:31.467Z,58.10
2022-08-27T14:33:00.925Z,58.30
2022-08-27T14:35:33.466Z,57.50
2022-08-27T14:38:22.557Z,57.70
2022-08-27T14:40:53.611Z,57.80
2022-08-27T14:43:22.950Z,58.20
2022-08-27T14:45:51.999Z,58.10
2022-08-27T14:48:28.555Z,57.60
2022-08-27T14:50:57.887Z,57.60
2022-08-27T14:53:26.335Z,57.40
2022-08-27T14:55:54.874Z,57.10
2022-08-27T14:58:22.503Z,57.20
2022-08-27T15:00:52.002Z,57.60
2022-08-27T15:03:19.869Z,57.50
2022-08-27T15:05:47.365Z,57.40
2022-08-27T15:08:16.351Z,57.10
2022-08-27T15:10:47.308Z,56.90
2022-08-27T15:13:15.031Z,57.30
2022-08-27T15:15:42.791Z,57.00
2022-08-27T15:18:10.759Z,57.20
2022-08-27T15:20:40.112Z,57.40
2022-08-27T15:23:09.656Z,57.50
2022-08-27T15:25:37.162Z,57.40
2022-08-27T15:28:06.812Z,57.70
2022-08-27T15:30:36.771Z,57.70
2022-08-27T15:33:06.213Z,58.00
2022-08-27T15:35:34.330Z,57.20
2022-08-27T15:38:02.828Z,57.30
2022-08-27T15:40:34.669Z,57.70
2022-08-27T15:43:06.772Z,57.80
2022-08-27T15:45:36.080Z,58.30
2022-08-27T15:48:04.120Z,58.30
2022-08-27T15:50:32.543Z,58.20
2022-08-27T15:53:03.261Z,58.50
2022-08-27T15:55:34.774Z,58.60
2022-08-27T15:58:03.038Z,58.90
2022-08-27T16:00:33.736Z,58.70
2022-08-27T16:03:04.996Z,58.70
2022-08-27T16:05:35.501Z,58.90
2022-08-27T16:08:04.129Z,58.80
2022-08-27T16:10:31.675Z,58.90
2022-08-27T16:12:59.147Z,59.10
2022-08-27T16:15:26.980Z,59.10
2022-08-27T16:18:00.795Z,59.00
2022-08-27T16:20:28.705Z,59.00
2022-08-27T16:22:56.503Z,59.30
2022-08-27T16:25:23.918Z,59.60
2022-08-27T16:27:51.636Z,59.60
2022-08-27T16:30:20.535Z,59.70
2022-08-27T16:32:50.774Z,59.60
2022-08-27T16:35:19.101Z,59.70
2022-08-27T16:37:46.600Z,59.80
2022-08-27T16:40:15.479Z,60.00
2022-08-27T16:42:48.463Z,59.90
2022-08-27T16:45:17.960Z,60.50
2022-08-27T16:48:03.760Z,60.70
2022-08-27T16:50:34.127Z,61.30
2022-08-27T16:53:07.365Z,61.50
2022-08-27T16:55:37.617Z,61.70
2022-08-27T16:58:09.100Z,61.90
2022-08-27T17:00:38.738Z,62.20
2022-08-27T17:03:07.890Z,62.60
2022-08-27T17:05:35.537Z,63.10
2022-08-27T17:08:03.988Z,63.30
2022-08-27T17:10:37.588Z,63.40
2022-08-27T17:13:08.323Z,63.80
2022-08-27T17:15:36.365Z,64.10
2022-08-27T17:18:04.303Z,64.20
2022-08-27T17:20:33.432Z,64.50
2022-08-27T17:23:01.803Z,64.90
2022-08-27T17:25:30.372Z,65.30
2022-08-27T17:28:00.480Z,65.50
2022-08-27T17:30:28.255Z,65.90
2022-08-27T17:32:55.852Z,66.80
2022-08-27T17:35:23.406Z,67.10
2022-08-27T17:37:51.117Z,67.10
2022-08-27T17:40:18.813Z,67.60
2022-08-27T17:42:46.588Z,67.50
2022-08-27T17:45:14.100Z,68.20
2022-08-27T17:47:41.719Z,68.20
2022-08-27T17:50:10.121Z,68.40
2022-08-27T17:52:40.496Z,69.50
2022-08-27T17:55:08.479Z,68.70
2022-08-27T17:57:41.047Z,69.10
2022-08-27T18:00:12.908Z,69.20
2022-08-27T18:02:47.342Z,69.60
2022-08-27T18:05:16.384Z,70.20
2022-08-27T18:07:52.273Z,69.80
2022-08-27T18:10:23.699Z,69.90
2022-08-27T18:12:52.487Z,70.20
2022-08-27T18:15:26.268Z,70.40
2022-08-27T18:17:55.281Z,70.50
2022-08-27T18:20:25.910Z,70.50
2022-08-27T18:22:53.813Z,70.60
2022-08-27T18:25:26.558Z,70.70
2022-08-27T18:27:57.972Z,71.20
2022-08-27T18:30:26.157Z,71.50
2022-08-27T18:32:53.769Z,71.40
2022-08-27T18:35:30.616Z,71.30
2022-08-27T18:37:58.243Z,71.90
2022-08-27T18:40:28.887Z,71.50
2022-08-27T18:42:57.679Z,71.70
2022-08-27T18:45:28.461Z,71.80
2022-08-27T18:47:59.369Z,72.00
2022-08-27T18:50:27.642Z,72.20
2022-08-27T18:52:56.592Z,72.00
2022-08-27T18:55:28.021Z,72.00
2022-08-27T18:57:55.835Z,72.10
2022-08-27T19:00:24.799Z,72.30
2022-08-27T19:02:53.448Z,72.20
2022-08-27T19:05:25.078Z,72.30
2022-08-27T19:07:53.367Z,72.50
2022-08-27T19:10:21.231Z,72.50
2022-08-27T19:12:49.631Z,72.40
2022-08-27T19:15:17.678Z,72.60
2022-08-27T19:17:50.229Z,72.50
2022-08-27T19:20:18.682Z,72.60
2022-08-27T19:22:47.439Z,72.40
2022-08-27T19:25:16.684Z,72.70
2022-08-27T19:27:45.323Z,72.80
2022-08-27T19:30:15.050Z,73.00
2022-08-27T19:32:43.427Z,73.10
2022-08-27T19:35:11.012Z,72.90
2022-08-27T19:37:43.570Z,73.00
2022-08-27T19:40:14.506Z,72.90
2022-08-27T19:42:42.582Z,73.10
2022-08-27T19:45:11.840Z,73.00
2022-08-27T19:47:39.565Z,73.00
2022-08-27T19:50:10.020Z,73.00
2022-08-27T19:52:38.241Z,73.20
2022-08-27T19:55:14.435Z,73.10
2022-08-27T19:57:44.176Z,73.30
2022-08-27T20:00:13.740Z,73.30
2022-08-27T20:02:41.144Z,73.30
2022-08-27T20:05:24.117Z,73.30
2022-08-27T20:07:53.755Z,73.40
2022-08-27T20:10:25.775Z,73.50
2022-08-27T20:12:59.673Z,73.50
2022-08-27T20:15:27.431Z,73.70
2022-08-27T20:17:55.197Z,73.70
2022-08-27T20:20:24.566Z,73.70
2022-08-27T20:22:52.775Z,73.80
2022-08-27T20:25:20.381Z,73.90
2022-08-27T20:27:47.972Z,73.80
2022-08-27T20:30:16.542Z,73.90
2022-08-27T20:32:46.723Z,73.90
2022-08-27T20:35:15.827Z,73.90
2022-08-27T20:37:44.016Z,73.80
2022-08-27T20:40:16.358Z,74.00
2022-08-27T20:42:44.539Z,74.20
2022-08-27T20:45:13.732Z,74.10
2022-08-27T20:47:43.276Z,74.10
2022-08-27T20:50:12.868Z,74.30
2022-08-27T20:52:41.892Z,74.30
2022-08-27T20:55:09.867Z,74.60
2022-08-27T20:57:37.464Z,74.50
2022-08-27T21:00:21.893Z,74.50
2022-08-27T21:02:49.232Z,74.60
2022-08-27T21:05:19.191Z,74.70
2022-08-27T21:07:48.686Z,74.70
2022-08-27T21:10:16.719Z,74.80
2022-08-27T21:12:44.694Z,75.10
2022-08-27T21:15:13.019Z,74.90
2022-08-27T21:17:40.269Z,74.80
2022-08-27T21:20:12.855Z,74.70
2022-08-27T21:22:43.216Z,74.80
2022-08-27T21:25:13.185Z,74.80
2022-08-27T21:27:41.846Z,74.80
2022-08-27T21:30:11.507Z,75.00
2022-08-27T21:32:39.336Z,75.10
2022-08-27T21:35:07.678Z,75.30
2022-08-27T21:37:36.352Z,75.30
2022-08-27T21:40:06.658Z,75.50
2022-08-27T21:42:35.421Z,75.20
2022-08-27T21:45:03.835Z,75.20
2022-08-27T21:47:31.340Z,75.20
2022-08-27T21:49:59.243Z,75.10
2022-08-27T21:52:26.882Z,75.20
2022-08-27T21:54:54.775Z,75.00
2022-08-27T21:57:22.457Z,75.00
2022-08-27T21:59:51.150Z,75.00
2022-08-27T22:02:39.442Z,75.10
2022-08-27T22:05:08.632Z,75.40
2022-08-27T22:07:36.400Z,75.30
2022-08-27T22:10:05.893Z,75.30
2022-08-27T22:12:33.714Z,75.30
2022-08-27T22:15:01.630Z,75.40
2022-08-27T22:17:29.555Z,75.60
2022-08-27T22:19:57.239Z,75.50
2022-08-27T22:22:24.631Z,75.50
2022-08-27T22:24:58.782Z,75.60
2022-08-27T22:27:26.807Z,75.60
2022-08-27T22:29:54.623Z,75.50
2022-08-27T22:32:22.276Z,75.30
2022-08-27T22:34:49.831Z,75.40
2022-08-27T22:37:17.764Z,75.40
2022-08-27T22:39:45.438Z,75.40
2022-08-27T22:42:13.969Z,75.30
2022-08-27T22:44:45.580Z,75.30
2022-08-27T22:47:14.880Z,75.30
2022-08-27T22:49:43.575Z,75.30
2022-08-27T22:52:11.642Z,75.40
2022-08-27T22:54:39.783Z,75.30
2022-08-27T22:57:07.128Z,75.40
2022-08-27T22:59:39.110Z,75.20
2022-08-27T23:02:10.393Z,75.20
2022-08-27T23:04:54.593Z,75.20
2022-08-27T23:07:23.205Z,75.30
2022-08-27T23:09:50.705Z,75.20
2022-08-27T23:12:19.732Z,75.30
2022-08-27T23:14:47.472Z,75.30
2022-08-27T23:17:15.992Z,75.50
2022-08-27T23:19:45.489Z,75.50
2022-08-27T23:22:13.103Z,75.60
2022-08-27T23:25:00.404Z,75.70
2022-08-27T23:27:30.649Z,75.80
2022-08-27T23:29:59.708Z,75.70
2022-08-27T23:32:28.592Z,75.80
2022-08-27T23:34:56.627Z,75.80
2022-08-27T23:37:25.700Z,75.60
2022-08-27T23:39:53.728Z,75.70
2022-08-27T23:42:21.847Z,75.70
2022-08-27T23:44:49.363Z,75.80
2022-08-27T23:47:17.685Z,75.80
2022-08-27T23:49:45.474Z,75.80
2022-08-27T23:52:13.483Z,75.80
2022-08-27T23:54:40.796Z,75.80
2022-08-27T23:57:08.069Z,75.90
2022-08-27T23:59:35.714Z,76.10
